sensor_id;sensor_type;location;lat;lon;timestamp;temperature;humidity
10278;DHT22;5184;51.376;7.148;2023-03-20T00:01:59;8.60;99.90
10278;DHT22;5184;51.376;7.148;2023-03-20T00:04:27;8.60;99.90
10278;DHT22;5184;51.376;7.148;2023-03-20T00:06:53;8.60;99.90
10278;DHT22;5184;51.376;7.148;2023-03-20T00:09:20;8.50;99.90
10278;DHT22;5184;51.376;7.148;2023-03-20T00:11:48;8.50;99.90
10278;DHT22;5184;51.376;7.148;2023-03-20T00:14:16;8.40;99.90
10278;DHT22;5184;51.376;7.148;2023-03-20T00:16:43;8.50;99.90
10278;DHT22;5184;51.376;7.148;2023-03-20T00:19:21;8.50;99.90
10278;DHT22;5184;51.376;7.148;2023-03-20T00:21:51;8.50;99.90
10278;DHT22;5184;51.376;7.148;2023-03-20T00:24:17;8.40;99.90
10278;DHT22;5184;51.376;7.148;2023-03-20T00:26:44;8.40;99.90
10278;DHT22;5184;51.376;7.148;2023-03-20T00:29:24;8.40;99.90
10278;DHT22;5184;51.376;7.148;2023-03-20T00:31:49;8.30;99.90
10278;DHT22;5184;51.376;7.148;2023-03-20T00:34:17;8.30;99.90
10278;DHT22;5184;51.376;7.148;2023-03-20T00:36:43;8.30;99.90
10278;DHT22;5184;51.376;7.148;2023-03-20T00:39:10;8.30;99.90
10278;DHT22;5184;51.376;7.148;2023-03-20T00:41:55;8.30;99.90
10278;DHT22;5184;51.376;7.148;2023-03-20T00:44:36;8.30;99.90
10278;DHT22;5184;51.376;7.148;2023-03-20T00:47:05;8.20;99.90
10278;DHT22;5184;51.376;7.148;2023-03-20T00:49:31;8.20;99.90
10278;DHT22;5184;51.376;7.148;2023-03-20T00:51:58;8.20;99.90
10278;DHT22;5184;51.376;7.148;2023-03-20T00:54:24;8.10;99.90
10278;DHT22;5184;51.376;7.148;2023-03-20T00:56:58;8.10;99.90
10278;DHT22;5184;51.376;7.148;2023-03-20T00:59:25;8.10;99.90
10278;DHT22;5184;51.376;7.148;2023-03-20T01:01:51;8.10;99.90
10278;DHT22;5184;51.376;7.148;2023-03-20T01:04:18;8.10;99.90
10278;DHT22;5184;51.376;7.148;2023-03-20T01:06:44;8.00;99.90
10278;DHT22;5184;51.376;7.148;2023-03-20T01:09:11;8.00;99.90
10278;DHT22;5184;51.376;7.148;2023-03-20T01:11:38;8.00;99.90
10278;DHT22;5184;51.376;7.148;2023-03-20T01:14:09;7.90;99.90
10278;DHT22;5184;51.376;7.148;2023-03-20T01:16:32;7.90;99.90
10278;DHT22;5184;51.376;7.148;2023-03-20T01:18:58;8.00;99.90
10278;DHT22;5184;51.376;7.148;2023-03-20T01:21:25;7.90;99.90
10278;DHT22;5184;51.376;7.148;2023-03-20T01:23:52;7.90;99.90
10278;DHT22;5184;51.376;7.148;2023-03-20T01:26:23;7.90;99.90
10278;DHT22;5184;51.376;7.148;2023-03-20T01:28:48;7.90;99.90
10278;DHT22;5184;51.376;7.148;2023-03-20T01:31:15;7.90;99.90
10278;DHT22;5184;51.376;7.148;2023-03-20T01:33:40;7.90;99.90
10278;DHT22;5184;51.376;7.148;2023-03-20T01:36:09;7.80;1.00
10278;DHT22;5184;51.376;7.148;2023-03-20T01:38:36;7.80;1.00
10278;DHT22;5184;51.376;7.148;2023-03-20T01:41:11;7.80;1.00
10278;DHT22;5184;51.376;7.148;2023-03-20T01:43:38;7.80;1.00
10278;DHT22;5184;51.376;7.148;2023-03-20T01:46:24;7.80;1.00
10278;DHT22;5184;51.376;7.148;2023-03-20T01:49:02;7.80;1.00
10278;DHT22;5184;51.376;7.148;2023-03-20T01:51:28;7.80;1.00
10278;DHT22;5184;51.376;7.148;2023-03-20T01:53:56;7.80;1.00
10278;DHT22;5184;51.376;7.148;2023-03-20T01:56:22;7.80;1.00
10278;DHT22;5184;51.376;7.148;2023-03-20T01:58:50;7.70;1.00
10278;DHT22;5184;51.376;7.148;2023-03-20T02:01:15;7.70;1.00
10278;DHT22;5184;51.376;7.148;2023-03-20T02:03:43;7.70;1.00
10278;DHT22;5184;51.376;7.148;2023-03-20T02:06:08;7.70;1.00
10278;DHT22;5184;51.376;7.148;2023-03-20T02:08:39;7.70;1.00
10278;DHT22;5184;51.376;7.148;2023-03-20T02:11:03;7.70;1.00
10278;DHT22;5184;51.376;7.148;2023-03-20T02:13:30;7.70;1.00
10278;DHT22;5184;51.376;7.148;2023-03-20T02:16:02;7.70;1.00
10278;DHT22;5184;51.376;7.148;2023-03-20T02:18:28;7.70;1.00
10278;DHT22;5184;51.376;7.148;2023-03-20T02:26:38;7.60;1.00
10278;DHT22;5184;51.376;7.148;2023-03-20T02:29:08;7.50;1.00
10278;DHT22;5184;51.376;7.148;2023-03-20T02:34:29;7.60;1.00
10278;DHT22;5184;51.376;7.148;2023-03-20T02:39:47;7.50;1.00
10278;DHT22;5184;51.376;7.148;2023-03-20T02:42:32;7.40;1.00
10278;DHT22;5184;51.376;7.148;2023-03-20T02:45:02;7.40;1.00
10278;DHT22;5184;51.376;7.148;2023-03-20T02:47:27;7.30;1.00
10278;DHT22;5184;51.376;7.148;2023-03-20T02:49:55;7.30;1.00
10278;DHT22;5184;51.376;7.148;2023-03-20T02:52:32;7.20;1.00
10278;DHT22;5184;51.376;7.148;2023-03-20T02:55:19;7.20;1.00
10278;DHT22;5184;51.376;7.148;2023-03-20T02:58:23;7.20;1.00
10278;DHT22;5184;51.376;7.148;2023-03-20T03:00:34;7.20;1.00
10278;DHT22;5184;51.376;7.148;2023-03-20T03:03:03;7.30;1.00
10278;DHT22;5184;51.376;7.148;2023-03-20T03:05:31;7.30;1.00
10278;DHT22;5184;51.376;7.148;2023-03-20T03:07:56;7.30;1.00
10278;DHT22;5184;51.376;7.148;2023-03-20T03:10:24;7.30;1.00
10278;DHT22;5184;51.376;7.148;2023-03-20T03:12:50;7.40;1.00
10278;DHT22;5184;51.376;7.148;2023-03-20T03:17:54;7.40;1.00
10278;DHT22;5184;51.376;7.148;2023-03-20T03:20:25;7.50;1.00
10278;DHT22;5184;51.376;7.148;2023-03-20T03:22:50;7.40;1.00
10278;DHT22;5184;51.376;7.148;2023-03-20T03:25:18;7.50;1.00
10278;DHT22;5184;51.376;7.148;2023-03-20T03:27:45;7.50;1.00
10278;DHT22;5184;51.376;7.148;2023-03-20T03:30:17;7.50;1.00
10278;DHT22;5184;51.376;7.148;2023-03-20T03:32:46;7.40;99.90
10278;DHT22;5184;51.376;7.148;2023-03-20T03:35:14;7.40;99.90
10278;DHT22;5184;51.376;7.148;2023-03-20T03:37:47;7.40;99.90
10278;DHT22;5184;51.376;7.148;2023-03-20T03:40:52;7.40;1.00
10278;DHT22;5184;51.376;7.148;2023-03-20T03:43:02;7.40;1.00
10278;DHT22;5184;51.376;7.148;2023-03-20T03:45:34;7.40;1.00
10278;DHT22;5184;51.376;7.148;2023-03-20T03:48:06;7.40;1.00
10278;DHT22;5184;51.376;7.148;2023-03-20T03:50:36;7.40;1.00
10278;DHT22;5184;51.376;7.148;2023-03-20T03:53:03;7.30;1.00
10278;DHT22;5184;51.376;7.148;2023-03-20T03:55:31;7.30;99.90
10278;DHT22;5184;51.376;7.148;2023-03-20T03:57:59;7.20;1.00
10278;DHT22;5184;51.376;7.148;2023-03-20T04:00:25;7.20;1.00
10278;DHT22;5184;51.376;7.148;2023-03-20T04:02:52;7.20;1.00
10278;DHT22;5184;51.376;7.148;2023-03-20T04:05:17;7.10;1.00
10278;DHT22;5184;51.376;7.148;2023-03-20T04:07:44;7.10;1.00
10278;DHT22;5184;51.376;7.148;2023-03-20T04:10:11;7.10;1.00
10278;DHT22;5184;51.376;7.148;2023-03-20T04:12:39;7.10;1.00
10278;DHT22;5184;51.376;7.148;2023-03-20T04:15:06;7.20;1.00
10278;DHT22;5184;51.376;7.148;2023-03-20T04:17:33;7.20;1.00
10278;DHT22;5184;51.376;7.148;2023-03-20T04:20:00;7.20;1.00
10278;DHT22;5184;51.376;7.148;2023-03-20T04:22:28;7.20;1.00
10278;DHT22;5184;51.376;7.148;2023-03-20T04:24:54;7.20;1.00
10278;DHT22;5184;51.376;7.148;2023-03-20T04:27:21;7.30;1.00
10278;DHT22;5184;51.376;7.148;2023-03-20T04:29:47;7.30;1.00
10278;DHT22;5184;51.376;7.148;2023-03-20T04:32:14;7.30;1.00
10278;DHT22;5184;51.376;7.148;2023-03-20T04:34:41;7.20;1.00
10278;DHT22;5184;51.376;7.148;2023-03-20T04:37:08;7.20;1.00
10278;DHT22;5184;51.376;7.148;2023-03-20T04:39:35;7.20;1.00
10278;DHT22;5184;51.376;7.148;2023-03-20T04:42:02;7.20;1.00
10278;DHT22;5184;51.376;7.148;2023-03-20T04:44:28;7.10;1.00
10278;DHT22;5184;51.376;7.148;2023-03-20T04:46:55;7.10;1.00
10278;DHT22;5184;51.376;7.148;2023-03-20T04:49:21;7.00;1.00
10278;DHT22;5184;51.376;7.148;2023-03-20T04:51:48;7.00;1.00
10278;DHT22;5184;51.376;7.148;2023-03-20T04:54:15;7.00;1.00
10278;DHT22;5184;51.376;7.148;2023-03-20T04:56:41;6.90;1.00
10278;DHT22;5184;51.376;7.148;2023-03-20T04:59:08;7.00;1.00
10278;DHT22;5184;51.376;7.148;2023-03-20T05:01:35;6.90;1.00
10278;DHT22;5184;51.376;7.148;2023-03-20T05:04:01;7.00;1.00
10278;DHT22;5184;51.376;7.148;2023-03-20T05:06:28;6.90;1.00
10278;DHT22;5184;51.376;7.148;2023-03-20T05:08:54;6.90;1.00
10278;DHT22;5184;51.376;7.148;2023-03-20T05:11:21;6.90;1.00
10278;DHT22;5184;51.376;7.148;2023-03-20T05:13:48;6.90;1.00
10278;DHT22;5184;51.376;7.148;2023-03-20T05:16:16;6.30;1.00
10278;DHT22;5184;51.376;7.148;2023-03-20T05:18:43;6.80;1.00
10278;DHT22;5184;51.376;7.148;2023-03-20T05:21:10;6.80;1.00
10278;DHT22;5184;51.376;7.148;2023-03-20T05:23:36;6.80;1.00
10278;DHT22;5184;51.376;7.148;2023-03-20T05:26:03;6.80;1.00
10278;DHT22;5184;51.376;7.148;2023-03-20T05:28:30;6.80;1.00
10278;DHT22;5184;51.376;7.148;2023-03-20T05:30:56;6.70;1.00
10278;DHT22;5184;51.376;7.148;2023-03-20T05:33:23;6.70;1.00
10278;DHT22;5184;51.376;7.148;2023-03-20T05:35:50;6.70;20.80
10278;DHT22;5184;51.376;7.148;2023-03-20T05:38:16;6.70;43.20
10278;DHT22;5184;51.376;7.148;2023-03-20T05:40:44;6.70;51.70
10278;DHT22;5184;51.376;7.148;2023-03-20T05:43:11;6.70;64.80
10278;DHT22;5184;51.376;7.148;2023-03-20T05:45:38;6.70;62.70
10278;DHT22;5184;51.376;7.148;2023-03-20T05:48:05;6.70;73.80
10278;DHT22;5184;51.376;7.148;2023-03-20T05:50:32;6.70;63.10
10278;DHT22;5184;51.376;7.148;2023-03-20T05:52:58;6.70;79.10
10278;DHT22;5184;51.376;7.148;2023-03-20T05:55:25;6.70;93.90
10278;DHT22;5184;51.376;7.148;2023-03-20T05:57:52;6.70;99.90
10278;DHT22;5184;51.376;7.148;2023-03-20T06:00:19;6.70;93.00
10278;DHT22;5184;51.376;7.148;2023-03-20T06:02:46;6.70;92.20
10278;DHT22;5184;51.376;7.148;2023-03-20T06:05:12;6.70;92.40
10278;DHT22;5184;51.376;7.148;2023-03-20T06:07:39;6.70;82.40
10278;DHT22;5184;51.376;7.148;2023-03-20T06:10:07;6.70;45.30
10278;DHT22;5184;51.376;7.148;2023-03-20T06:12:34;6.70;44.00
10278;DHT22;5184;51.376;7.148;2023-03-20T06:15:01;6.80;56.60
10278;DHT22;5184;51.376;7.148;2023-03-20T06:17:27;6.80;34.00
10278;DHT22;5184;51.376;7.148;2023-03-20T06:19:54;6.80;2.40
10278;DHT22;5184;51.376;7.148;2023-03-20T06:22:20;6.80;20.40
10278;DHT22;5184;51.376;7.148;2023-03-20T06:24:47;6.80;3.50
10278;DHT22;5184;51.376;7.148;2023-03-20T06:27:14;6.90;1.00
10278;DHT22;5184;51.376;7.148;2023-03-20T06:29:42;6.90;1.00
10278;DHT22;5184;51.376;7.148;2023-03-20T06:32:08;6.90;1.00
10278;DHT22;5184;51.376;7.148;2023-03-20T06:34:36;6.90;1.00
10278;DHT22;5184;51.376;7.148;2023-03-20T06:37:02;6.90;1.00
10278;DHT22;5184;51.376;7.148;2023-03-20T06:39:29;6.90;1.00
10278;DHT22;5184;51.376;7.148;2023-03-20T06:41:56;6.90;1.00
10278;DHT22;5184;51.376;7.148;2023-03-20T06:44:22;6.90;1.00
10278;DHT22;5184;51.376;7.148;2023-03-20T06:46:50;6.90;1.00
10278;DHT22;5184;51.376;7.148;2023-03-20T06:49:17;6.90;1.00
10278;DHT22;5184;51.376;7.148;2023-03-20T06:51:44;7.00;1.00
10278;DHT22;5184;51.376;7.148;2023-03-20T06:54:12;7.00;1.00
10278;DHT22;5184;51.376;7.148;2023-03-20T06:56:39;7.00;1.00
10278;DHT22;5184;51.376;7.148;2023-03-20T06:59:07;7.10;1.00
10278;DHT22;5184;51.376;7.148;2023-03-20T07:01:33;7.10;1.00
10278;DHT22;5184;51.376;7.148;2023-03-20T07:04:00;7.10;99.90
10278;DHT22;5184;51.376;7.148;2023-03-20T07:06:27;7.10;1.00
10278;DHT22;5184;51.376;7.148;2023-03-20T07:08:54;7.10;99.90
10278;DHT22;5184;51.376;7.148;2023-03-20T07:11:20;7.20;99.90
10278;DHT22;5184;51.376;7.148;2023-03-20T07:13:47;7.20;99.90
10278;DHT22;5184;51.376;7.148;2023-03-20T07:16:13;7.30;99.90
10278;DHT22;5184;51.376;7.148;2023-03-20T07:18:41;7.40;99.90
10278;DHT22;5184;51.376;7.148;2023-03-20T07:21:09;7.40;99.90
10278;DHT22;5184;51.376;7.148;2023-03-20T07:23:35;7.40;99.90
10278;DHT22;5184;51.376;7.148;2023-03-20T07:26:01;7.40;12.50
10278;DHT22;5184;51.376;7.148;2023-03-20T07:28:28;7.40;1.00
10278;DHT22;5184;51.376;7.148;2023-03-20T07:30:54;7.40;1.00
10278;DHT22;5184;51.376;7.148;2023-03-20T07:33:21;7.50;1.00
10278;DHT22;5184;51.376;7.148;2023-03-20T07:35:52;7.50;1.00
10278;DHT22;5184;51.376;7.148;2023-03-20T07:38:19;7.50;1.00
10278;DHT22;5184;51.376;7.148;2023-03-20T07:40:46;7.70;1.00
10278;DHT22;5184;51.376;7.148;2023-03-20T07:43:14;7.70;91.30
10278;DHT22;5184;51.376;7.148;2023-03-20T07:45:41;7.70;80.50
10278;DHT22;5184;51.376;7.148;2023-03-20T07:48:07;7.80;1.00
10278;DHT22;5184;51.376;7.148;2023-03-20T07:50:35;7.80;99.90
10278;DHT22;5184;51.376;7.148;2023-03-20T07:53:02;7.80;1.00
10278;DHT22;5184;51.376;7.148;2023-03-20T07:55:29;7.80;99.90
10278;DHT22;5184;51.376;7.148;2023-03-20T07:57:57;7.90;1.00
10278;DHT22;5184;51.376;7.148;2023-03-20T08:00:24;7.80;1.00
10278;DHT22;5184;51.376;7.148;2023-03-20T08:02:52;7.80;1.00
10278;DHT22;5184;51.376;7.148;2023-03-20T08:05:18;7.80;1.00
10278;DHT22;5184;51.376;7.148;2023-03-20T08:07:45;7.80;1.00
10278;DHT22;5184;51.376;7.148;2023-03-20T08:10:12;7.90;99.90
10278;DHT22;5184;51.376;7.148;2023-03-20T08:12:38;8.00;99.90
10278;DHT22;5184;51.376;7.148;2023-03-20T08:15:05;8.10;1.00
10278;DHT22;5184;51.376;7.148;2023-03-20T08:17:32;8.20;1.00
10278;DHT22;5184;51.376;7.148;2023-03-20T08:19:58;8.30;99.90
10278;DHT22;5184;51.376;7.148;2023-03-20T08:22:25;8.30;1.00
10278;DHT22;5184;51.376;7.148;2023-03-20T08:24:51;8.40;1.00
10278;DHT22;5184;51.376;7.148;2023-03-20T08:27:18;8.60;99.90
10278;DHT22;5184;51.376;7.148;2023-03-20T08:29:45;8.70;1.00
10278;DHT22;5184;51.376;7.148;2023-03-20T08:32:13;8.70;99.90
10278;DHT22;5184;51.376;7.148;2023-03-20T08:34:39;8.70;99.90
10278;DHT22;5184;51.376;7.148;2023-03-20T08:37:07;8.60;15.60
10278;DHT22;5184;51.376;7.148;2023-03-20T08:39:33;8.60;12.20
10278;DHT22;5184;51.376;7.148;2023-03-20T08:42:00;8.60;99.90
10278;DHT22;5184;51.376;7.148;2023-03-20T08:44:27;8.60;20.20
10278;DHT22;5184;51.376;7.148;2023-03-20T08:46:54;8.60;5.70
10278;DHT22;5184;51.376;7.148;2023-03-20T08:49:21;8.60;1.00
10278;DHT22;5184;51.376;7.148;2023-03-20T08:51:49;8.80;1.00
10278;DHT22;5184;51.376;7.148;2023-03-20T08:54:16;8.80;1.00
10278;DHT22;5184;51.376;7.148;2023-03-20T08:56:44;8.70;1.00
10278;DHT22;5184;51.376;7.148;2023-03-20T08:59:11;8.70;1.00
10278;DHT22;5184;51.376;7.148;2023-03-20T09:01:38;8.70;1.00
10278;DHT22;5184;51.376;7.148;2023-03-20T09:04:04;8.70;99.90
10278;DHT22;5184;51.376;7.148;2023-03-20T09:06:34;8.80;99.90
10278;DHT22;5184;51.376;7.148;2023-03-20T09:08:58;8.80;1.00
10278;DHT22;5184;51.376;7.148;2023-03-20T09:11:26;8.60;1.00
10278;DHT22;5184;51.376;7.148;2023-03-20T09:13:53;8.60;1.00
10278;DHT22;5184;51.376;7.148;2023-03-20T09:16:20;8.60;1.00
10278;DHT22;5184;51.376;7.148;2023-03-20T09:18:48;8.70;1.00
10278;DHT22;5184;51.376;7.148;2023-03-20T09:21:15;8.60;99.90
10278;DHT22;5184;51.376;7.148;2023-03-20T09:23:42;8.60;99.90
10278;DHT22;5184;51.376;7.148;2023-03-20T09:26:08;8.60;1.00
10278;DHT22;5184;51.376;7.148;2023-03-20T09:28:35;8.70;99.90
10278;DHT22;5184;51.376;7.148;2023-03-20T09:31:03;8.60;1.00
10278;DHT22;5184;51.376;7.148;2023-03-20T09:33:30;8.60;1.00
10278;DHT22;5184;51.376;7.148;2023-03-20T09:35:57;8.70;1.00
10278;DHT22;5184;51.376;7.148;2023-03-20T09:38:24;8.60;1.00
10278;DHT22;5184;51.376;7.148;2023-03-20T09:40:52;8.60;1.00
10278;DHT22;5184;51.376;7.148;2023-03-20T09:43:39;8.60;1.00
10278;DHT22;5184;51.376;7.148;2023-03-20T09:46:28;8.60;1.00
10278;DHT22;5184;51.376;7.148;2023-03-20T09:49:13;8.60;20.00
10278;DHT22;5184;51.376;7.148;2023-03-20T09:51:43;8.80;1.00
10278;DHT22;5184;51.376;7.148;2023-03-20T09:54:26;8.80;1.00
10278;DHT22;5184;51.376;7.148;2023-03-20T09:56:51;8.90;1.00
10278;DHT22;5184;51.376;7.148;2023-03-20T09:59:18;9.00;1.00
10278;DHT22;5184;51.376;7.148;2023-03-20T10:01:48;8.90;1.00
10278;DHT22;5184;51.376;7.148;2023-03-20T10:04:14;8.80;1.00
10278;DHT22;5184;51.376;7.148;2023-03-20T10:06:41;8.80;1.00
10278;DHT22;5184;51.376;7.148;2023-03-20T10:09:19;8.80;1.00
10278;DHT22;5184;51.376;7.148;2023-03-20T10:13:00;8.90;1.00
10278;DHT22;5184;51.376;7.148;2023-03-20T10:14:56;8.90;10.00
10278;DHT22;5184;51.376;7.148;2023-03-20T10:17:28;8.90;2.20
10278;DHT22;5184;51.376;7.148;2023-03-20T10:19:52;9.10;1.00
10278;DHT22;5184;51.376;7.148;2023-03-20T10:22:24;9.10;1.00
10278;DHT22;5184;51.376;7.148;2023-03-20T10:24:53;9.00;99.90
10278;DHT22;5184;51.376;7.148;2023-03-20T10:27:23;8.90;99.90
10278;DHT22;5184;51.376;7.148;2023-03-20T10:29:58;8.90;99.90
10278;DHT22;5184;51.376;7.148;2023-03-20T10:32:28;8.90;99.90
10278;DHT22;5184;51.376;7.148;2023-03-20T10:35:14;8.90;99.90
10278;DHT22;5184;51.376;7.148;2023-03-20T10:37:47;8.90;99.90
10278;DHT22;5184;51.376;7.148;2023-03-20T10:40:19;9.00;99.90
10278;DHT22;5184;51.376;7.148;2023-03-20T10:42:43;9.00;99.90
10278;DHT22;5184;51.376;7.148;2023-03-20T10:45:28;9.20;99.90
10278;DHT22;5184;51.376;7.148;2023-03-20T10:47:51;9.30;38.90
10278;DHT22;5184;51.376;7.148;2023-03-20T10:50:20;9.20;1.00
10278;DHT22;5184;51.376;7.148;2023-03-20T10:52:45;9.20;1.00
10278;DHT22;5184;51.376;7.148;2023-03-20T10:55:14;9.10;11.90
10278;DHT22;5184;51.376;7.148;2023-03-20T10:57:41;9.30;30.10
10278;DHT22;5184;51.376;7.148;2023-03-20T11:00:11;9.40;1.00
10278;DHT22;5184;51.376;7.148;2023-03-20T11:02:34;9.30;1.00
10278;DHT22;5184;51.376;7.148;2023-03-20T11:05:06;9.30;1.00
10278;DHT22;5184;51.376;7.148;2023-03-20T11:07:31;9.40;1.00
10278;DHT22;5184;51.376;7.148;2023-03-20T11:10:13;9.60;1.00
10278;DHT22;5184;51.376;7.148;2023-03-20T11:12:42;9.60;1.00
10278;DHT22;5184;51.376;7.148;2023-03-20T11:15:22;9.60;1.00
10278;DHT22;5184;51.376;7.148;2023-03-20T11:17:54;9.60;1.00
10278;DHT22;5184;51.376;7.148;2023-03-20T11:20:19;9.60;1.00
10278;DHT22;5184;51.376;7.148;2023-03-20T11:22:46;9.50;1.00
10278;DHT22;5184;51.376;7.148;2023-03-20T11:25:24;9.50;1.00
10278;DHT22;5184;51.376;7.148;2023-03-20T11:27:49;9.50;1.00
10278;DHT22;5184;51.376;7.148;2023-03-20T11:30:16;9.60;1.00
10278;DHT22;5184;51.376;7.148;2023-03-20T11:32:47;9.60;1.00
10278;DHT22;5184;51.376;7.148;2023-03-20T11:35:27;9.70;99.90
10278;DHT22;5184;51.376;7.148;2023-03-20T11:37:52;9.70;1.00
10278;DHT22;5184;51.376;7.148;2023-03-20T11:40:21;9.80;99.90
10278;DHT22;5184;51.376;7.148;2023-03-20T11:42:52;9.80;99.90
10278;DHT22;5184;51.376;7.148;2023-03-20T11:45:18;9.80;1.00
10278;DHT22;5184;51.376;7.148;2023-03-20T11:47:49;9.80;1.00
10278;DHT22;5184;51.376;7.148;2023-03-20T11:50:31;9.70;1.00
10278;DHT22;5184;51.376;7.148;2023-03-20T11:52:57;9.50;1.00
10278;DHT22;5184;51.376;7.148;2023-03-20T11:55:28;9.50;75.60
10278;DHT22;5184;51.376;7.148;2023-03-20T11:57:55;9.40;37.10
10278;DHT22;5184;51.376;7.148;2023-03-20T12:00:23;9.30;99.90
10278;DHT22;5184;51.376;7.148;2023-03-20T12:02:50;9.20;99.90
10278;DHT22;5184;51.376;7.148;2023-03-20T12:07:51;9.40;1.00
10278;DHT22;5184;51.376;7.148;2023-03-20T12:10:18;9.30;1.00
10278;DHT22;5184;51.376;7.148;2023-03-20T12:12:50;9.30;80.40
10278;DHT22;5184;51.376;7.148;2023-03-20T12:15:22;9.30;83.50
10278;DHT22;5184;51.376;7.148;2023-03-20T12:18:05;9.50;99.90
10278;DHT22;5184;51.376;7.148;2023-03-20T12:23:24;9.30;1.00
10278;DHT22;5184;51.376;7.148;2023-03-20T12:25:58;9.30;1.00
10278;DHT22;5184;51.376;7.148;2023-03-20T12:28:29;9.30;99.90
10278;DHT22;5184;51.376;7.148;2023-03-20T12:33:36;9.30;1.00
10278;DHT22;5184;51.376;7.148;2023-03-20T12:36:00;9.40;1.00
10278;DHT22;5184;51.376;7.148;2023-03-20T12:38:28;9.20;1.00
10278;DHT22;5184;51.376;7.148;2023-03-20T12:41:03;9.00;1.00
10278;DHT22;5184;51.376;7.148;2023-03-20T12:43:27;9.00;1.00
10278;DHT22;5184;51.376;7.148;2023-03-20T12:45:59;8.50;1.00
10278;DHT22;5184;51.376;7.148;2023-03-20T12:48:33;8.50;1.00
10278;DHT22;5184;51.376;7.148;2023-03-20T12:51:00;8.70;99.90
10278;DHT22;5184;51.376;7.148;2023-03-20T12:53:31;8.70;99.90
10278;DHT22;5184;51.376;7.148;2023-03-20T12:56:47;8.90;99.90
10278;DHT22;5184;51.376;7.148;2023-03-20T12:59:02;8.90;99.90
10278;DHT22;5184;51.376;7.148;2023-03-20T13:01:31;8.80;99.90
10278;DHT22;5184;51.376;7.148;2023-03-20T13:04:04;8.80;99.90
10278;DHT22;5184;51.376;7.148;2023-03-20T13:06:48;8.90;99.90
10278;DHT22;5184;51.376;7.148;2023-03-20T13:12:34;8.70;1.00
10278;DHT22;5184;51.376;7.148;2023-03-20T13:15:22;8.50;99.90
10278;DHT22;5184;51.376;7.148;2023-03-20T13:18:05;8.80;99.90
10278;DHT22;5184;51.376;7.148;2023-03-20T13:20:31;8.80;99.90
10278;DHT22;5184;51.376;7.148;2023-03-20T13:23:03;8.70;99.90
10278;DHT22;5184;51.376;7.148;2023-03-20T13:25:38;8.80;1.00
10278;DHT22;5184;51.376;7.148;2023-03-20T13:28:12;8.90;1.00
10278;DHT22;5184;51.376;7.148;2023-03-20T13:30:41;8.80;48.80
10278;DHT22;5184;51.376;7.148;2023-03-20T13:33:25;8.70;46.30
10278;DHT22;5184;51.376;7.148;2023-03-20T13:38:39;8.60;99.90
10278;DHT22;5184;51.376;7.148;2023-03-20T13:41:06;8.60;99.90
10278;DHT22;5184;51.376;7.148;2023-03-20T13:43:35;8.80;1.00
10278;DHT22;5184;51.376;7.148;2023-03-20T13:46:02;8.80;1.00
10278;DHT22;5184;51.376;7.148;2023-03-20T13:48:31;8.70;99.90
10278;DHT22;5184;51.376;7.148;2023-03-20T13:51:29;8.60;99.90
10278;DHT22;5184;51.376;7.148;2023-03-20T13:54:20;8.60;99.90
10278;DHT22;5184;51.376;7.148;2023-03-20T13:56:47;8.60;35.70
10278;DHT22;5184;51.376;7.148;2023-03-20T14:02:14;8.80;1.00
10278;DHT22;5184;51.376;7.148;2023-03-20T14:04:40;8.90;16.90
10278;DHT22;5184;51.376;7.148;2023-03-20T14:09:44;8.90;99.90
10278;DHT22;5184;51.376;7.148;2023-03-20T14:12:11;8.80;99.90
10278;DHT22;5184;51.376;7.148;2023-03-20T14:14:47;8.90;99.90
10278;DHT22;5184;51.376;7.148;2023-03-20T14:17:18;8.90;99.90
10278;DHT22;5184;51.376;7.148;2023-03-20T14:19:43;8.90;99.90
10278;DHT22;5184;51.376;7.148;2023-03-20T14:22:16;8.90;99.90
10278;DHT22;5184;51.376;7.148;2023-03-20T14:24:43;9.00;1.00
10278;DHT22;5184;51.376;7.148;2023-03-20T14:27:13;9.10;1.00
10278;DHT22;5184;51.376;7.148;2023-03-20T14:29:36;9.30;99.90
10278;DHT22;5184;51.376;7.148;2023-03-20T14:32:20;9.30;97.00
10278;DHT22;5184;51.376;7.148;2023-03-20T14:34:48;9.20;77.30
10278;DHT22;5184;51.376;7.148;2023-03-20T14:37:28;9.10;99.90
10278;DHT22;5184;51.376;7.148;2023-03-20T14:39:58;9.10;99.90
10278;DHT22;5184;51.376;7.148;2023-03-20T14:45:25;9.30;99.90
10278;DHT22;5184;51.376;7.148;2023-03-20T14:47:51;9.40;99.90
10278;DHT22;5184;51.376;7.148;2023-03-20T14:50:36;9.70;99.90
10278;DHT22;5184;51.376;7.148;2023-03-20T14:53:11;9.60;99.90
10278;DHT22;5184;51.376;7.148;2023-03-20T15:00:54;9.50;99.90
10278;DHT22;5184;51.376;7.148;2023-03-20T15:03:21;9.50;99.90
10278;DHT22;5184;51.376;7.148;2023-03-20T15:05:49;9.50;99.90
10278;DHT22;5184;51.376;7.148;2023-03-20T15:08:20;9.40;99.90
10278;DHT22;5184;51.376;7.148;2023-03-20T15:10:44;9.40;99.90
10278;DHT22;5184;51.376;7.148;2023-03-20T15:13:10;9.30;99.90
10278;DHT22;5184;51.376;7.148;2023-03-20T15:15:36;9.20;99.90
10278;DHT22;5184;51.376;7.148;2023-03-20T15:18:09;9.20;1.00
10278;DHT22;5184;51.376;7.148;2023-03-20T15:20:34;9.40;1.00
10278;DHT22;5184;51.376;7.148;2023-03-20T15:22:59;9.50;99.90
10278;DHT22;5184;51.376;7.148;2023-03-20T15:25:30;9.50;1.00
10278;DHT22;5184;51.376;7.148;2023-03-20T15:27:54;9.50;1.00
10278;DHT22;5184;51.376;7.148;2023-03-20T15:30:21;9.50;1.00
10278;DHT22;5184;51.376;7.148;2023-03-20T15:32:48;9.40;1.00
10278;DHT22;5184;51.376;7.148;2023-03-20T15:35:16;9.50;1.00
10278;DHT22;5184;51.376;7.148;2023-03-20T15:37:43;9.50;1.00
10278;DHT22;5184;51.376;7.148;2023-03-20T15:40:10;9.50;1.00
10278;DHT22;5184;51.376;7.148;2023-03-20T15:42:37;9.60;50.60
10278;DHT22;5184;51.376;7.148;2023-03-20T15:45:15;9.50;1.00
10278;DHT22;5184;51.376;7.148;2023-03-20T15:47:36;9.50;1.00
10278;DHT22;5184;51.376;7.148;2023-03-20T15:50:04;9.50;99.90
10278;DHT22;5184;51.376;7.148;2023-03-20T15:52:37;9.50;99.90
10278;DHT22;5184;51.376;7.148;2023-03-20T15:55:02;9.50;99.90
10278;DHT22;5184;51.376;7.148;2023-03-20T15:57:34;9.60;99.90
10278;DHT22;5184;51.376;7.148;2023-03-20T16:00:03;9.50;1.00
10278;DHT22;5184;51.376;7.148;2023-03-20T16:02:29;9.50;75.40
10278;DHT22;5184;51.376;7.148;2023-03-20T16:04:56;9.40;77.30
10278;DHT22;5184;51.376;7.148;2023-03-20T16:07:26;9.40;99.90
10278;DHT22;5184;51.376;7.148;2023-03-20T16:09:52;9.50;99.90
10278;DHT22;5184;51.376;7.148;2023-03-20T16:12:18;9.40;1.00
10278;DHT22;5184;51.376;7.148;2023-03-20T16:14:46;9.40;99.90
10278;DHT22;5184;51.376;7.148;2023-03-20T16:17:13;9.30;99.90
10278;DHT22;5184;51.376;7.148;2023-03-20T16:19:39;9.30;99.90
10278;DHT22;5184;51.376;7.148;2023-03-20T16:22:11;9.30;25.40
10278;DHT22;5184;51.376;7.148;2023-03-20T16:24:35;9.30;1.00
10278;DHT22;5184;51.376;7.148;2023-03-20T16:27:06;9.20;99.90
10278;DHT22;5184;51.376;7.148;2023-03-20T16:29:31;9.10;99.90
10278;DHT22;5184;51.376;7.148;2023-03-20T16:32:04;9.10;1.00
10278;DHT22;5184;51.376;7.148;2023-03-20T16:34:32;9.00;99.90
10278;DHT22;5184;51.376;7.148;2023-03-20T16:36:58;9.00;99.90
10278;DHT22;5184;51.376;7.148;2023-03-20T16:39:26;8.90;1.00
10278;DHT22;5184;51.376;7.148;2023-03-20T16:41:55;8.90;1.00
10278;DHT22;5184;51.376;7.148;2023-03-20T16:44:20;8.80;1.00
10278;DHT22;5184;51.376;7.148;2023-03-20T16:47:01;8.90;99.90
10278;DHT22;5184;51.376;7.148;2023-03-20T16:50:16;8.90;1.00
10278;DHT22;5184;51.376;7.148;2023-03-20T16:52:26;8.80;1.00
10278;DHT22;5184;51.376;7.148;2023-03-20T16:54:51;8.80;1.00
10278;DHT22;5184;51.376;7.148;2023-03-20T16:57:17;8.70;99.90
10278;DHT22;5184;51.376;7.148;2023-03-20T16:59:44;8.80;1.00
10278;DHT22;5184;51.376;7.148;2023-03-20T17:02:11;8.80;1.00
10278;DHT22;5184;51.376;7.148;2023-03-20T17:04:39;8.70;99.90